Time;durP1;ratioP1;P1;durP2;ratioP2;P2;SDS_P1;SDS_P2;PMS_P1;PMS_P2;Temp;Humidity;BMP_temperature;BMP_pressure;BME280_temperature;BME280_humidity;BME280_pressure;Samples;Min_cycle;Max_cycle;Signal;HPM_P1;HPM_P2
2023/03/12 00:01:25;;;;;;;7.63;5.28;;;;;;;1.57;80.34;97705.75;4118776;28;20560;-85
2023/03/12 00:03:32;;;;;;;7.28;5.50;;;;;;;1.55;80.73;97700.69;4118591;28;20216;-85
2023/03/12 00:05:37;;;;;;;8.45;5.55;;;;;;;1.55;80.22;97705.00;4116789;28;20290;-85
2023/03/12 00:07:41;;;;;;;8.95;5.60;;;;;;;1.56;80.82;97707.47;4118574;28;20741;-85
2023/03/12 00:09:44;;;;;;;9.55;5.18;;;;;;;1.57;80.83;97703.19;4118223;28;20212;-85
2023/03/12 00:11:47;;;;;;;9.50;5.38;;;;;;;1.52;80.43;97708.50;4120991;28;20222;-85
2023/03/12 00:13:51;;;;;;;12.57;5.60;;;;;;;1.48;80.67;97701.00;4115385;28;20723;-85
2023/03/12 00:15:54;;;;;;;10.20;5.57;;;;;;;1.47;80.60;97707.88;4117644;28;20282;-88
2023/03/12 00:17:57;;;;;;;7.90;5.35;;;;;;;1.44;80.06;97704.56;4102073;28;20292;-86
2023/03/12 00:20:00;;;;;;;6.85;5.07;;;;;;;1.45;80.12;97703.69;4135912;28;20200;-88
2023/03/12 00:22:04;;;;;;;8.10;4.85;;;;;;;1.42;80.65;97708.94;4117353;28;20702;-87
2023/03/12 00:24:08;;;;;;;7.25;5.20;;;;;;;1.42;80.12;97709.75;4118937;28;20697;-85
2023/03/12 00:26:13;;;;;;;11.15;6.50;;;;;;;1.41;80.55;97718.38;4118464;28;20212;-85
2023/03/12 00:28:16;;;;;;;9.60;5.28;;;;;;;1.41;80.56;97710.69;4106938;28;20220;-85
2023/03/12 00:30:19;;;;;;;11.77;6.80;;;;;;;1.44;81.08;97713.13;4118852;28;21324;-85
2023/03/12 00:32:23;;;;;;;10.43;6.45;;;;;;;1.43;80.87;97710.63;4133267;28;20657;-85
2023/03/12 00:34:26;;;;;;;10.00;5.95;;;;;;;1.43;81.21;97714.00;4115352;28;20233;-85
2023/03/12 00:36:31;;;;;;;12.75;5.90;;;;;;;1.46;80.57;97719.03;4119448;28;20846;-85
2023/03/12 00:38:34;;;;;;;8.60;6.00;;;;;;;1.42;80.50;97719.19;4119839;28;20213;-85
2023/03/12 00:40:39;;;;;;;7.78;5.28;;;;;;;1.37;80.57;97720.25;4118780;28;20212;-85
2023/03/12 00:42:42;;;;;;;10.88;5.50;;;;;;;1.30;80.49;97711.97;4117622;28;20277;-85
2023/03/12 00:44:45;;;;;;;8.77;6.25;;;;;;;1.24;79.90;97701.09;4114863;28;20204;-85
2023/03/12 00:46:48;;;;;;;8.32;5.32;;;;;;;1.18;79.79;97697.03;4117785;28;20736;-85
2023/03/12 00:48:51;;;;;;;9.75;5.43;;;;;;;1.17;79.96;97702.22;4106973;28;20219;-85
2023/03/12 00:50:54;;;;;;;9.10;6.15;;;;;;;1.15;80.17;97709.97;4115053;28;20204;-85
2023/03/12 00:52:57;;;;;;;12.77;6.00;;;;;;;1.15;80.00;97709.16;4108294;28;20632;-85
2023/03/12 00:55:00;;;;;;;14.02;5.85;;;;;;;1.12;80.71;97704.97;4115539;28;20208;-85
2023/03/12 00:57:06;;;;;;;8.48;5.50;;;;;;;1.11;80.88;97702.44;4113018;28;20319;-85
2023/03/12 00:59:10;;;;;;;7.90;5.80;;;;;;;1.10;80.86;97705.94;4124316;28;20207;-85
2023/03/12 01:01:13;;;;;;;10.65;6.10;;;;;;;1.08;81.32;97698.28;4116057;28;20958;-85
2023/03/12 01:03:17;;;;;;;8.68;6.18;;;;;;;1.09;80.99;97697.38;4114950;28;20221;-85
2023/03/12 01:05:20;;;;;;;13.45;6.38;;;;;;;1.10;80.82;97693.09;4116718;28;20252;-85
2023/03/12 01:07:23;;;;;;;10.05;5.85;;;;;;;1.08;81.31;97687.16;4122170;28;20209;-85
2023/03/12 01:09:26;;;;;;;8.48;6.22;;;;;;;1.06;81.26;97684.66;4117878;28;20303;-85
2023/03/12 01:11:29;;;;;;;9.85;5.47;;;;;;;1.07;81.83;97688.91;4118484;28;20700;-85
2023/03/12 01:13:34;;;;;;;9.95;6.10;;;;;;;1.08;81.72;97694.88;4126434;28;20216;-85
2023/03/12 01:15:37;;;;;;;8.13;5.70;;;;;;;1.08;82.00;97689.72;4129170;28;20323;-85
2023/03/12 01:17:40;;;;;;;8.60;5.88;;;;;;;1.07;81.34;97690.66;4119794;28;20259;-85
2023/03/12 01:19:43;;;;;;;10.52;6.32;;;;;;;1.09;81.76;97699.94;4119712;28;20240;-85
2023/03/12 01:21:46;;;;;;;8.50;6.40;;;;;;;1.12;81.47;97694.69;4115572;28;20679;-85
2023/03/12 01:23:50;;;;;;;12.73;6.68;;;;;;;1.12;81.88;97704.97;4114754;28;20224;-85
2023/03/12 01:25:54;;;;;;;10.70;6.05;;;;;;;1.08;81.93;97703.44;4094452;28;20292;-85
2023/03/12 01:27:57;;;;;;;8.93;6.07;;;;;;;1.07;81.28;97701.75;4130506;28;20556;-87
2023/03/12 01:30:06;;;;;;;11.50;6.78;;;;;;;1.04;81.41;97695.91;4132933;28;20208;-88
2023/03/12 01:32:09;;;;;;;9.45;6.75;;;;;;;1.02;81.95;97702.78;4117338;28;20211;-85
2023/03/12 01:34:12;;;;;;;14.60;7.28;;;;;;;0.99;81.49;97701.19;4128446;28;20282;-85
2023/03/12 01:36:17;;;;;;;10.05;6.72;;;;;;;0.99;81.52;97711.47;4115134;28;20212;-85
2023/03/12 01:38:20;;;;;;;9.63;6.00;;;;;;;0.99;81.93;97713.19;4130817;28;20253;-85
2023/03/12 01:40:27;;;;;;;11.95;7.25;;;;;;;0.99;81.75;97713.19;4117198;28;20216;-85
2023/03/12 01:42:31;;;;;;;10.45;6.30;;;;;;;0.99;81.72;97710.59;4129601;28;20734;-84
2023/03/12 01:44:49;;;;;;;9.27;5.65;;;;;;;0.98;81.69;97714.09;4116048;28;20227;-85
2023/03/12 01:46:54;;;;;;;8.32;6.30;;;;;;;0.94;81.54;97713.34;4099379;28;20278;-85
2023/03/12 01:49:03;;;;;;;8.75;6.03;;;;;;;0.94;82.18;97704.81;4111844;28;20200;-85
2023/03/12 01:51:08;;;;;;;9.50;5.90;;;;;;;0.95;82.55;97711.63;4099058;28;20811;-85
2023/03/12 01:53:11;;;;;;;8.13;5.97;;;;;;;0.98;82.61;97711.53;4115800;28;21122;-85
2023/03/12 01:55:16;;;;;;;9.48;6.13;;;;;;;0.97;82.68;97713.22;4129768;28;20215;-85
2023/03/12 01:57:23;;;;;;;9.35;5.50;;;;;;;0.99;82.54;97708.91;4118312;28;20231;-85
2023/03/12 01:59:30;;;;;;;9.38;6.18;;;;;;;0.98;83.08;97711.53;4101474;28;20220;-85
2023/03/12 02:01:33;;;;;;;7.45;5.75;;;;;;;0.99;83.35;97711.47;4108372;28;20359;-85
2023/03/12 02:03:38;;;;;;;9.05;5.55;;;;;;;1.00;83.71;97709.72;4102009;28;20226;-84
2023/03/12 02:05:47;;;;;;;13.25;6.50;;;;;;;1.04;83.77;97713.88;4121855;28;20326;-85
2023/03/12 02:07:51;;;;;;;8.50;6.13;;;;;;;1.07;83.43;97717.16;4116813;28;20208;-85
2023/03/12 02:09:55;;;;;;;11.50;5.72;;;;;;;1.10;83.13;97716.19;4118949;28;20678;-85
2023/03/12 02:11:58;;;;;;;9.52;5.50;;;;;;;1.13;83.41;97724.63;4117567;28;20212;-85
2023/03/12 02:14:02;;;;;;;11.07;5.55;;;;;;;1.14;83.68;97712.59;4120577;28;20216;-85
2023/03/12 02:16:06;;;;;;;8.82;5.90;;;;;;;1.14;83.45;97708.34;4121061;28;20213;-85
2023/03/12 02:18:13;;;;;;;11.07;6.40;;;;;;;1.12;83.60;97706.72;4133263;28;20228;-85
2023/03/12 02:20:22;;;;;;;8.48;5.38;;;;;;;1.12;83.83;97711.84;4116169;28;20208;-84
2023/03/12 02:22:26;;;;;;;10.57;6.20;;;;;;;1.13;83.64;97711.78;4117778;28;20319;-85
2023/03/12 02:24:34;;;;;;;10.73;5.60;;;;;;;1.12;83.62;97704.13;4116382;28;20208;-85
2023/03/12 02:26:39;;;;;;;10.38;5.70;;;;;;;1.11;83.47;97707.59;4118375;28;20212;-85
2023/03/12 02:28:44;;;;;;;11.13;5.50;;;;;;;1.12;83.62;97711.84;4130784;28;20235;-85
2023/03/12 02:30:50;;;;;;;8.32;5.05;;;;;;;1.14;83.26;97708.34;4134039;28;20273;-84
2023/03/12 02:32:55;;;;;;;9.88;5.50;;;;;;;1.16;83.45;97710.84;4109672;28;20748;-84
2023/03/12 02:35:00;;;;;;;5.88;4.70;;;;;;;1.20;83.00;97715.78;4117811;28;20208;-84
2023/03/12 02:37:03;;;;;;;6.95;5.47;;;;;;;1.23;82.98;97709.69;4118466;28;20212;-85
2023/03/12 02:39:07;;;;;;;6.75;4.40;;;;;;;1.25;82.96;97715.59;4134839;28;20810;-85
2023/03/12 02:41:14;;;;;;;10.18;5.32;;;;;;;1.26;82.91;97712.16;4121728;28;20340;-84
2023/03/12 02:43:21;;;;;;;6.90;4.80;;;;;;;1.26;83.49;97717.28;4117943;28;20230;-85
2023/03/12 02:45:25;;;;;;;6.60;4.93;;;;;;;1.24;82.73;97709.63;4122619;28;20247;-84
2023/03/12 02:47:29;;;;;;;6.47;4.93;;;;;;;1.25;83.07;97713.03;4120396;28;20196;-85
2023/03/12 02:49:34;;;;;;;7.28;4.80;;;;;;;1.21;83.23;97707.19;4118589;28;20243;-84
2023/03/12 02:51:38;;;;;;;6.68;4.75;;;;;;;1.19;83.52;97705.56;4116720;28;20204;-85
2023/03/12 02:53:42;;;;;;;6.63;5.28;;;;;;;1.18;82.94;97704.72;4117398;28;20208;-84
2023/03/12 02:55:45;;;;;;;8.20;4.75;;;;;;;1.15;83.23;97702.28;4133005;28;20213;-85
2023/03/12 02:57:49;;;;;;;7.10;4.32;;;;;;;1.16;82.95;97700.56;4102275;28;20738;-84
2023/03/12 02:59:54;;;;;;;9.65;4.35;;;;;;;1.16;83.23;97700.56;4114932;28;20214;-84
2023/03/12 03:01:59;;;;;;;7.85;4.47;;;;;;;1.16;83.91;97695.44;4135140;28;20953;-85
2023/03/12 03:04:05;;;;;;;8.20;5.00;;;;;;;1.17;83.39;97692.78;4109808;28;20616;-84
2023/03/12 03:06:08;;;;;;;6.88;4.65;;;;;;;1.18;83.55;97694.47;4123480;28;20251;-85
2023/03/12 03:08:12;;;;;;;8.95;4.97;;;;;;;1.21;83.69;97703.78;4121394;28;20207;-85
2023/03/12 03:10:16;;;;;;;6.45;4.32;;;;;;;1.26;83.51;97704.44;4123650;28;20204;-84
2023/03/12 03:12:21;;;;;;;7.43;4.30;;;;;;;1.25;83.43;97706.19;4113976;28;20220;-85
2023/03/12 03:14:25;;;;;;;8.20;5.03;;;;;;;1.28;83.37;97700.06;4118511;28;20216;-84
2023/03/12 03:16:30;;;;;;;8.70;5.28;;;;;;;1.27;83.70;97701.00;4102569;28;20240;-84
2023/03/12 03:18:34;;;;;;;6.13;4.40;;;;;;;1.28;83.35;97697.50;4105219;28;20459;-84
2023/03/12 03:20:38;;;;;;;7.70;5.00;;;;;;;1.32;83.96;97696.50;4118922;28;20210;-84
2023/03/12 03:22:42;;;;;;;10.23;5.00;;;;;;;1.31;83.86;97684.56;4123213;28;20211;-84
2023/03/12 03:24:45;;;;;;;9.40;4.93;;;;;;;1.31;84.03;97687.97;4118714;28;20276;-84
2023/03/12 03:26:49;;;;;;;7.80;5.72;;;;;;;1.32;84.13;97683.66;4120744;28;20227;-84
2023/03/12 03:28:53;;;;;;;9.60;5.28;;;;;;;1.33;83.63;97683.59;4123726;28;20211;-84
2023/03/12 03:31:00;;;;;;;8.20;5.25;;;;;;;1.35;83.25;97684.38;4122725;28;20273;-84
2023/03/12 03:33:08;;;;;;;7.30;4.50;;;;;;;1.35;83.83;97688.69;4135051;28;20298;-84
2023/03/12 03:35:12;;;;;;;6.03;4.40;;;;;;;1.34;83.54;97684.44;4121954;28;20218;-84
2023/03/12 03:37:15;;;;;;;9.07;5.10;;;;;;;1.32;83.67;97679.34;4099700;28;20218;-84
2023/03/12 03:39:20;;;;;;;8.00;4.30;;;;;;;1.36;84.00;97682.66;4123382;28;20330;-84
2023/03/12 03:41:24;;;;;;;7.57;5.00;;;;;;;1.39;83.25;97685.94;4136789;28;20223;-84
2023/03/12 03:43:29;;;;;;;5.97;4.75;;;;;;;1.36;83.82;97686.06;4117699;28;20757;-84
2023/03/12 03:45:32;;;;;;;7.80;5.50;;;;;;;1.34;83.59;97684.44;4133109;28;20211;-84
2023/03/12 03:47:36;;;;;;;10.02;4.82;;;;;;;1.37;83.27;97685.16;4114734;28;20219;-84
2023/03/12 03:49:41;;;;;;;10.10;4.95;;;;;;;1.38;83.60;97683.44;4096540;28;20345;-84
2023/03/12 03:51:48;;;;;;;7.60;4.32;;;;;;;1.39;83.13;97685.13;4131962;28;20215;-84
2023/03/12 03:53:57;;;;;;;8.05;4.50;;;;;;;1.38;83.16;97683.44;4123361;28;20323;-84
2023/03/12 03:56:06;;;;;;;6.95;4.68;;;;;;;1.39;83.41;97692.81;4119561;28;20657;-84
2023/03/12 03:58:11;;;;;;;7.38;4.30;;;;;;;1.36;83.74;97683.50;4114833;28;20263;-84
2023/03/12 04:00:16;;;;;;;7.93;4.65;;;;;;;1.36;83.88;97685.22;4120921;28;20208;-84
2023/03/12 04:02:22;;;;;;;9.98;4.97;;;;;;;1.37;83.54;97685.16;4100611;28;20216;-85
2023/03/12 04:04:26;;;;;;;4.50;3.90;;;;;;;1.36;83.54;97682.66;4134022;28;20240;-84
2023/03/12 04:06:31;;;;;;;6.82;3.80;;;;;;;1.34;83.37;97692.13;4118355;28;20212;-84
2023/03/12 04:08:36;;;;;;;7.10;3.80;;;;;;;1.33;83.66;97690.50;4108334;28;20213;-84
2023/03/12 04:10:41;;;;;;;6.28;4.32;;;;;;;1.31;84.09;97682.84;4111314;28;20243;-85
2023/03/12 04:12:45;;;;;;;6.20;4.40;;;;;;;1.33;83.75;97682.78;4137997;28;20290;-84
2023/03/12 04:14:48;;;;;;;10.30;5.10;;;;;;;1.35;84.18;97683.53;4123934;28;20207;-84
2023/03/12 04:16:51;;;;;;;7.40;4.53;;;;;;;1.37;84.22;97674.91;4126296;28;20211;-84
2023/03/12 04:18:54;;;;;;;6.53;4.55;;;;;;;1.36;84.18;97683.50;4129675;28;20219;-84
2023/03/12 04:20:58;;;;;;;5.30;3.80;;;;;;;1.36;84.50;97677.53;4126856;28;20208;-84
2023/03/12 04:23:03;;;;;;;5.75;4.30;;;;;;;1.38;84.21;97676.56;4135887;28;20211;-84
2023/03/12 04:25:07;;;;;;;7.13;4.40;;;;;;;1.41;84.40;97677.28;4123055;28;20765;-84
2023/03/12 04:27:10;;;;;;;7.25;4.50;;;;;;;1.42;84.47;97667.84;4119408;28;20264;-84
2023/03/12 04:29:14;;;;;;;5.97;4.68;;;;;;;1.46;84.36;97674.53;4132592;28;20467;-84
2023/03/12 04:31:17;;;;;;;5.40;4.15;;;;;;;1.49;83.75;97675.25;4119171;28;20207;-84
2023/03/12 04:33:25;;;;;;;11.68;4.93;;;;;;;1.52;83.98;97675.13;4114691;28;20677;-84
2023/03/12 04:35:28;;;;;;;8.07;4.88;;;;;;;1.54;84.19;97672.50;4102282;28;20277;-84
2023/03/12 04:37:32;;;;;;;6.32;4.55;;;;;;;1.54;83.68;97673.31;4107077;28;20794;-84
2023/03/12 04:39:37;;;;;;;6.47;3.95;;;;;;;1.54;83.90;97673.31;4118445;28;20274;-84
2023/03/12 04:41:40;;;;;;;7.80;5.20;;;;;;;1.57;83.74;97677.50;4137412;28;20266;-85
2023/03/12 04:43:48;;;;;;;6.03;4.55;;;;;;;1.61;83.89;97684.19;4129335;28;20266;-84
2023/03/12 04:45:52;;;;;;;6.20;5.07;;;;;;;1.59;83.93;97684.25;4115753;28;20223;-84
2023/03/12 04:47:56;;;;;;;5.50;4.30;;;;;;;1.63;84.03;97696.06;4116773;28;20218;-84
2023/03/12 04:49:59;;;;;;;7.47;4.45;;;;;;;1.64;84.48;97690.06;4123435;28;20294;-84
2023/03/12 04:52:02;;;;;;;5.70;4.22;;;;;;;1.69;83.67;97687.31;4119254;28;20205;-84
2023/03/12 04:54:05;;;;;;;8.27;4.28;;;;;;;1.71;83.63;97690.63;4132535;28;20595;-84
2023/03/12 04:56:11;;;;;;;7.45;4.72;;;;;;;1.73;83.82;97691.41;4122684;28;20304;-84
2023/03/12 04:58:14;;;;;;;7.22;4.25;;;;;;;1.80;83.52;97695.41;4104950;28;20778;-84
2023/03/12 05:00:19;;;;;;;7.57;4.88;;;;;;;1.79;83.69;97689.44;4119052;28;20324;-84
2023/03/12 05:02:22;;;;;;;7.63;4.70;;;;;;;1.81;84.16;97694.50;4107845;28;20231;-84
2023/03/12 05:04:25;;;;;;;6.88;5.07;;;;;;;1.83;84.12;97695.28;4132443;28;20274;-84
2023/03/12 05:06:29;;;;;;;7.47;5.00;;;;;;;1.82;83.84;97691.88;4131919;28;20204;-84
2023/03/12 05:08:32;;;;;;;11.32;4.60;;;;;;;1.85;83.99;97689.19;4124266;28;20243;-84
2023/03/12 05:10:35;;;;;;;5.97;5.15;;;;;;;1.87;84.54;97690.78;4104155;28;20650;-84
2023/03/12 05:12:40;;;;;;;6.82;4.60;;;;;;;1.91;83.78;97694.91;4135520;28;20209;-84
2023/03/12 05:14:43;;;;;;;7.07;5.65;;;;;;;1.95;83.85;97687.91;4114405;28;20300;-84
2023/03/12 05:16:46;;;;;;;7.80;4.90;;;;;;;1.95;83.66;97691.28;4127104;28;20632;-84
2023/03/12 05:18:50;;;;;;;9.77;5.22;;;;;;;2.00;83.16;97686.81;4113241;28;20200;-84
2023/03/12 05:21:00;;;;;;;6.88;5.00;;;;;;;2.00;83.28;97680.81;4131218;28;20599;-84
2023/03/12 05:23:04;;;;;;;10.30;6.47;;;;;;;2.01;83.39;97685.91;4134382;28;20805;-84
2023/03/12 05:25:07;;;;;;;7.75;4.60;;;;;;;2.03;84.13;97691.84;4113149;28;20578;-84
2023/03/12 05:27:10;;;;;;;5.57;4.18;;;;;;;2.04;83.39;97690.09;4114847;28;20219;-84
2023/03/12 05:29:16;;;;;;;7.70;4.50;;;;;;;2.03;83.55;97690.97;4131677;28;20714;-84
2023/03/12 05:31:20;;;;;;;8.80;4.90;;;;;;;2.02;83.95;97687.59;4130215;28;20254;-84
2023/03/12 05:33:24;;;;;;;7.95;4.40;;;;;;;2.04;83.85;97679.81;4116087;28;21304;-84
2023/03/12 05:35:27;;;;;;;5.18;4.25;;;;;;;2.05;83.51;97684.06;4122077;28;20581;-84
2023/03/12 05:37:30;;;;;;;5.40;4.38;;;;;;;2.05;83.73;97679.75;4118773;28;20216;-84
2023/03/12 05:39:34;;;;;;;7.80;4.70;;;;;;;2.03;83.09;97688.41;4104482;28;20299;-84
2023/03/12 05:41:40;;;;;;;8.68;4.50;;;;;;;2.03;83.40;97689.25;4134789;28;20232;-84
2023/03/12 05:43:49;;;;;;;7.78;4.95;;;;;;;2.07;84.01;97693.34;4134015;28;20229;-84
2023/03/12 05:45:58;;;;;;;6.80;4.80;;;;;;;2.09;84.07;97693.28;4118051;28;20208;-84
2023/03/12 05:48:02;;;;;;;8.25;5.50;;;;;;;2.11;83.62;97686.38;4115429;28;20601;-84
2023/03/12 05:50:06;;;;;;;9.15;5.25;;;;;;;2.13;83.61;97705.13;4116285;28;20254;-84
2023/03/12 05:52:11;;;;;;;7.57;5.43;;;;;;;2.12;83.91;97694.03;4132637;28;20561;-84
2023/03/12 05:54:14;;;;;;;7.75;5.15;;;;;;;2.16;84.09;97689.56;4135194;28;20233;-84
2023/03/12 05:56:18;;;;;;;6.43;4.65;;;;;;;2.19;83.78;97685.13;4122377;28;20216;-84
2023/03/12 05:58:21;;;;;;;7.43;5.47;;;;;;;2.21;83.45;97688.50;4117472;28;20203;-84
2023/03/12 06:00:25;;;;;;;9.82;5.05;;;;;;;2.22;83.75;97679.03;4103721;28;21035;-84
2023/03/12 06:02:32;;;;;;;6.22;4.95;;;;;;;2.23;84.42;97689.25;4133582;28;20759;-84
2023/03/12 06:04:35;;;;;;;9.32;5.70;;;;;;;2.24;84.57;97690.09;4113555;28;20611;-84
2023/03/12 06:06:38;;;;;;;12.10;5.05;;;;;;;2.28;84.41;97684.75;4115516;28;20215;-84
2023/03/12 06:08:43;;;;;;;8.20;5.32;;;;;;;2.32;83.58;97690.63;4104869;28;20220;-84
2023/03/12 06:10:47;;;;;;;6.97;5.90;;;;;;;2.37;83.79;97689.50;4118615;28;20213;-84
2023/03/12 06:12:50;;;;;;;7.28;4.80;;;;;;;2.35;83.34;97681.03;4115866;28;20219;-84
2023/03/12 06:14:53;;;;;;;7.93;5.05;;;;;;;2.36;82.95;97688.69;4104392;28;20220;-84
2023/03/12 06:16:56;;;;;;;10.40;5.40;;;;;;;2.34;83.43;97687.88;4136611;28;20643;-84
2023/03/12 06:19:02;;;;;;;8.48;4.82;;;;;;;2.40;83.38;97685.06;4117136;28;20302;-84
2023/03/12 06:21:11;;;;;;;7.15;5.50;;;;;;;2.44;83.85;97685.78;4136413;28;20344;-84
2023/03/12 06:23:15;;;;;;;7.75;5.22;;;;;;;2.46;83.45;97679.63;4116842;28;20215;-84
2023/03/12 06:25:18;;;;;;;6.70;5.57;;;;;;;2.48;83.50;97690.72;4120372;28;20234;-84
2023/03/12 06:27:21;;;;;;;7.43;5.90;;;;;;;2.52;83.95;97681.13;4117754;28;20634;-84
2023/03/12 06:29:25;;;;;;;7.53;5.30;;;;;;;2.55;84.10;97679.25;4115704;28;20710;-84
2023/03/12 06:31:28;;;;;;;13.48;7.32;;;;;;;2.58;83.89;97684.25;4135658;28;20295;-84
2023/03/12 06:33:31;;;;;;;10.07;5.65;;;;;;;2.60;83.24;97679.91;4123852;28;20669;-84
2023/03/12 06:35:36;;;;;;;12.38;5.68;;;;;;;2.62;83.72;97670.38;4119895;28;20927;-84
2023/03/12 06:37:39;;;;;;;7.53;5.63;;;;;;;2.65;83.96;97675.38;4119070;28;20212;-84
2023/03/12 06:39:42;;;;;;;9.43;6.65;;;;;;;2.67;84.03;97672.75;4118987;28;20239;-84
2023/03/12 06:41:45;;;;;;;7.70;5.65;;;;;;;2.70;83.92;97677.75;4119467;28;20630;-84
2023/03/12 06:43:48;;;;;;;7.50;5.50;;;;;;;2.73;83.60;97677.63;4119728;28;20212;-84
2023/03/12 06:45:52;;;;;;;9.18;6.30;;;;;;;2.77;83.45;97682.56;4122952;28;22221;-84
2023/03/12 06:47:55;;;;;;;8.05;5.60;;;;;;;2.82;83.75;97684.00;4118832;28;20691;-85
2023/03/12 06:49:58;;;;;;;6.72;5.35;;;;;;;2.87;83.58;97679.50;4120118;28;20675;-84
2023/03/12 06:52:03;;;;;;;9.02;5.88;;;;;;;2.92;82.92;97680.13;4120886;28;20267;-85
2023/03/12 06:54:06;;;;;;;7.13;5.30;;;;;;;2.91;83.24;97685.34;4118581;28;20224;-84
2023/03/12 06:56:09;;;;;;;8.52;5.82;;;;;;;2.93;83.71;97678.38;4136515;28;20789;-84
2023/03/12 06:58:13;;;;;;;9.20;5.82;;;;;;;2.96;83.25;97678.25;4118489;28;20217;-84
2023/03/12 07:00:16;;;;;;;9.30;5.35;;;;;;;2.98;83.49;97682.44;4135792;28;20398;-84
2023/03/12 07:02:19;;;;;;;11.52;6.20;;;;;;;2.99;83.30;97678.97;4116683;28;20208;-84
2023/03/12 07:04:23;;;;;;;6.68;5.65;;;;;;;3.04;83.73;97681.31;4122020;28;20231;-84
2023/03/12 07:06:26;;;;;;;8.02;6.25;;;;;;;3.05;83.37;97680.41;4140819;28;20227;-87
2023/03/12 07:08:30;;;;;;;6.90;6.20;;;;;;;3.10;83.42;97684.44;4121269;28;20302;-84
2023/03/12 07:10:33;;;;;;;8.57;7.15;;;;;;;3.14;83.23;97685.13;4126364;28;20204;-86
2023/03/12 07:12:37;;;;;;;8.63;7.00;;;;;;;3.15;82.94;97686.81;4132629;28;20219;-87
2023/03/12 07:14:40;;;;;;;8.73;6.60;;;;;;;3.12;83.10;97681.81;4117700;28;20730;-84
2023/03/12 07:16:43;;;;;;;11.55;8.30;;;;;;;3.13;83.95;97686.03;4118950;28;20357;-84
2023/03/12 07:18:46;;;;;;;14.43;9.60;;;;;;;3.16;84.05;97683.31;4116002;28;20674;-84
2023/03/12 07:20:49;;;;;;;12.43;8.75;;;;;;;3.18;84.34;97689.25;4101698;28;20229;-84
2023/03/12 07:22:52;;;;;;;12.90;9.10;;;;;;;3.22;84.07;97701.06;4117038;28;20913;-84
2023/03/12 07:24:57;;;;;;;13.40;9.63;;;;;;;3.23;84.54;97705.31;4117127;28;20258;-84
2023/03/12 07:27:00;;;;;;;13.93;9.40;;;;;;;3.23;83.82;97711.28;4121140;28;20208;-84
2023/03/12 07:29:04;;;;;;;12.90;10.52;;;;;;;3.26;85.03;97720.63;4119944;28;20235;-84
2023/03/12 07:31:07;;;;;;;14.50;11.20;;;;;;;3.27;86.03;97718.81;4117832;28;20692;-84
2023/03/12 07:33:12;;;;;;;16.50;11.07;;;;;;;3.32;85.59;97721.19;4100941;28;20711;-84
2023/03/12 07:35:15;;;;;;;23.83;15.95;;;;;;;3.35;85.73;97721.03;4119603;28;20882;-84
2023/03/12 07:37:18;;;;;;;28.58;17.70;;;;;;;3.37;85.33;97730.38;4098691;28;20725;-84
2023/03/12 07:39:22;;;;;;;17.50;13.25;;;;;;;3.37;85.91;97727.81;4118214;28;20212;-85
2023/03/12 07:41:26;;;;;;;12.02;8.77;;;;;;;3.39;86.62;97733.72;4121740;28;20228;-84
2023/03/12 07:43:29;;;;;;;7.60;6.75;;;;;;;3.41;87.30;97726.78;4121240;28;20230;-84
2023/03/12 07:45:32;;;;;;;11.90;7.88;;;;;;;3.44;87.87;97726.63;4104658;28;20638;-84
2023/03/12 07:47:35;;;;;;;13.50;7.93;;;;;;;3.46;87.25;97724.81;4130788;28;20718;-84
2023/03/12 07:49:40;;;;;;;31.27;20.20;;;;;;;3.48;87.75;97707.53;4123660;28;20209;-84
2023/03/12 07:51:43;;;;;;;8.70;7.72;;;;;;;3.54;87.29;97714.97;4120304;28;20263;-84
2023/03/12 07:53:47;;;;;;;13.55;9.95;;;;;;;3.55;86.55;97696.03;4122284;28;20586;-84
2023/03/12 07:55:51;;;;;;;17.92;10.70;;;;;;;3.53;86.94;97692.66;4120121;28;20208;-84
2023/03/12 07:57:57;;;;;;;17.42;11.93;;;;;;;3.61;86.83;97702.63;4119440;28;20208;-84
2023/03/12 08:00:01;;;;;;;9.77;6.15;;;;;;;3.70;86.94;97703.03;4135566;28;20237;-84
2023/03/12 08:02:13;;;;;;;7.22;5.22;;;;;;;3.77;86.55;97704.41;4117497;28;20269;-84
2023/03/12 08:04:17;;;;;;;8.55;6.28;;;;;;;3.87;86.52;97710.78;4118245;28;20242;-84
2023/03/12 08:06:20;;;;;;;10.90;8.35;;;;;;;3.98;87.93;97711.94;4118211;28;20300;-84
2023/03/12 08:08:23;;;;;;;17.42;15.52;;;;;;;4.12;87.17;97708.69;4118599;28;20223;-85
2023/03/12 08:10:27;;;;;;;8.88;6.07;;;;;;;4.26;87.69;97713.09;4131873;28;20265;-84
2023/03/12 08:12:30;;;;;;;7.88;6.43;;;;;;;4.39;87.41;97711.56;4118840;28;20204;-84
2023/03/12 08:14:35;;;;;;;11.63;6.25;;;;;;;4.53;88.83;97716.88;4120352;28;20200;-84
2023/03/12 08:16:38;;;;;;;14.20;6.47;;;;;;;4.66;89.53;97705.03;4118048;28;20245;-85
2023/03/12 08:18:42;;;;;;;9.35;6.00;;;;;;;4.81;88.45;97717.97;4119597;28;21012;-85
2023/03/12 08:20:46;;;;;;;5.80;5.00;;;;;;;4.98;89.06;97723.09;4120278;28;20208;-84
2023/03/12 08:22:49;;;;;;;9.13;5.70;;;;;;;5.13;88.39;97713.66;4115539;28;20216;-84
2023/03/12 08:24:52;;;;;;;7.60;5.65;;;;;;;5.23;88.52;97713.09;4118306;28;20205;-84
2023/03/12 08:26:55;;;;;;;8.32;5.70;;;;;;;5.32;89.40;97723.81;4130802;28;20210;-85
2023/03/12 08:29:00;;;;;;;9.15;5.28;;;;;;;5.37;88.97;97720.97;4118491;28;20456;-84
2023/03/12 08:31:04;;;;;;;7.72;5.57;;;;;;;5.39;88.97;97713.97;4097240;28;20220;-85
2023/03/12 08:33:08;;;;;;;8.48;5.90;;;;;;;5.40;89.29;97719.06;4124972;28;20760;-84
2023/03/12 08:35:11;;;;;;;6.80;5.47;;;;;;;5.42;89.47;97724.97;4130300;28;20211;-84
2023/03/12 08:37:14;;;;;;;8.00;5.63;;;;;;;5.48;90.67;97729.81;4103685;28;20386;-84
2023/03/12 08:39:18;;;;;;;7.10;6.00;;;;;;;5.56;90.31;97732.81;4122637;28;20211;-84
2023/03/12 08:41:21;;;;;;;5.40;4.40;;;;;;;5.60;90.75;97729.13;4117604;28;20231;-84
2023/03/12 08:43:24;;;;;;;8.60;5.75;;;;;;;5.67;90.49;97738.25;4120111;28;20223;-84
2023/03/12 08:45:31;;;;;;;5.28;4.65;;;;;;;5.75;90.53;97742.09;4115398;28;20225;-84
2023/03/12 08:47:36;;;;;;;6.72;5.68;;;;;;;5.84;90.80;97739.00;4116643;28;20245;-84
2023/03/12 08:49:39;;;;;;;9.15;5.95;;;;;;;5.94;91.29;97744.50;4119213;28;20289;-84
2023/03/12 08:51:44;;;;;;;6.45;4.90;;;;;;;5.99;91.00;97742.50;4110530;28;20219;-85
2023/03/12 08:53:47;;;;;;;8.57;5.55;;;;;;;6.01;91.08;97736.31;4120133;28;20213;-89
2023/03/12 08:55:52;;;;;;;10.07;7.65;;;;;;;6.01;90.39;97745.84;4112942;28;20228;-84
2023/03/12 08:57:56;;;;;;;11.43;8.93;;;;;;;5.97;89.82;97754.69;4128459;28;20235;-84
2023/03/12 08:59:59;;;;;;;18.48;9.02;;;;;;;5.91;89.22;97739.50;4116745;28;20218;-84
2023/03/12 09:02:02;;;;;;;10.88;8.25;;;;;;;5.73;89.35;97733.56;4117414;28;20794;-87
2023/03/12 09:04:07;;;;;;;13.07;9.93;;;;;;;5.74;89.25;97737.88;4114099;28;20820;-85
2023/03/12 09:06:15;;;;;;;16.55;9.98;;;;;;;5.85;89.80;97734.66;4135367;28;20296;-81
2023/03/12 09:08:18;;;;;;;13.15;9.75;;;;;;;5.95;90.36;97735.81;4126408;28;20328;-81
2023/03/12 09:10:21;;;;;;;17.23;12.18;;;;;;;6.06;91.26;97741.22;4123780;28;20216;-81
2023/03/12 09:12:25;;;;;;;15.77;9.50;;;;;;;6.11;91.94;97738.28;4119927;28;20260;-81
2023/03/12 09:14:28;;;;;;;8.25;6.65;;;;;;;6.14;91.92;97730.34;4125784;28;20630;-82
2023/03/12 09:16:51;;;;;;;13.48;7.13;;;;;;;6.18;92.46;97737.03;4121490;28;20212;-81
2023/03/12 09:18:54;;;;;;;12.93;7.35;;;;;;;6.28;92.51;97735.56;4137423;28;20215;-82
2023/03/12 09:20:59;;;;;;;6.20;5.45;;;;;;;6.32;92.87;97737.06;4140814;28;20208;-82
2023/03/12 09:23:02;;;;;;;10.00;6.93;;;;;;;6.39;93.30;97742.72;4120068;28;20436;-81
2023/03/12 09:25:09;;;;;;;8.40;5.97;;;;;;;6.50;93.69;97736.03;4127360;28;20221;-81
2023/03/12 09:27:13;;;;;;;8.05;4.47;;;;;;;6.62;93.72;97743.09;4134678;28;20224;-81
2023/03/12 09:29:16;;;;;;;7.28;5.10;;;;;;;6.66;93.80;97744.53;4117648;28;20757;-84
2023/03/12 09:31:19;;;;;;;6.20;5.10;;;;;;;6.67;93.07;97741.88;4120377;28;20218;-82
2023/03/12 09:33:23;;;;;;;6.80;5.53;;;;;;;6.71;93.44;97738.19;4107035;28;20202;-84
2023/03/12 09:35:26;;;;;;;7.15;5.50;;;;;;;6.76;93.72;97738.75;4131925;28;20250;-82
2023/03/12 09:37:31;;;;;;;7.38;5.93;;;;;;;6.83;93.66;97740.06;4132769;28;20342;-82
2023/03/12 09:39:34;;;;;;;6.95;6.18;;;;;;;6.92;94.47;97744.69;4119838;28;20225;-82
2023/03/12 09:41:40;;;;;;;6.60;5.82;;;;;;;6.99;93.81;97748.59;4131086;28;20211;-84
2023/03/12 09:43:48;;;;;;;8.85;6.20;;;;;;;7.06;93.79;97750.72;4119716;28;20291;-82
2023/03/12 09:45:51;;;;;;;7.65;6.10;;;;;;;7.09;94.45;97754.88;4118274;28;20254;-82
2023/03/12 09:47:57;;;;;;;11.75;7.22;;;;;;;7.12;94.34;97758.13;4113859;28;20697;-83
2023/03/12 09:50:04;;;;;;;11.05;7.18;;;;;;;7.14;94.95;97756.28;4118302;28;20299;-83